Aeroporto :
LOGIN :

Iscrizione | Disclaimer

   EN    FR    IT 

 










Sommario :    VFR   VFR Marginale   IFR   IFR Intensivo   IFR Molto Intensivo
Visibilità : 
Base nubi : 
>= 8 km
>= 3000ft
5 / 8 km
1000 / 3000 ft
1500m / 5 km
500 / 1000 ft
800 / 1500m
200 / 500 ft
< 800m
< 200 ft
Simboli :   Temporali  Nebbia  Neve Forte  Precipitazioni Forti  Vento > 20 kt
SIGMETs :   Varie  Temporali  Ghiacco  Turbolenza  Onda orograficha  Ceneri Vulcaniche






- Altitudine del aeroporto : 1860 ft
- Codice IATA : GRX


LEGR - Granada

ULTIMO METAR :
  • 300730Z 00000KT 9999 FEW090 09/07 Q1013

METARs OBSOLETI :
  • 300700Z 00000KT 9999 SCT090 07/06 Q1013
  • 300630Z 00000KT 9999 SCT090 07/05 Q1013
  • 300600Z 22001KT 9999 BKN090 07/05 Q1013
  • 300530Z 00000KT 9999 SCT090 08/06 Q1013
  • 300500Z 00000KT 9999 BKN090 08/06 Q1013

TAF TAF LEGR
Valido dal 30 a 03 ore il 31 a 03 ore UTC


300200Z 3003/3103 23004KT 9999 FEW040 TX18/3015Z TN06/3007Z
PROB30
TEMPO 3013/3103 4000 SHRA FEW030CB
BECMG 3100/3102 18010KT



MetMap, La meteo Aeronautica in un colpo d'occhio ! - Copyright ORBIFLY Dicembre 2007 - Disclaimer

ORBIFLY MET'MAP TEAM :

Programmazione e sviluppo : Alexandra Zaïnal
Concezione : Baudouin d'Aumeries
Aiuto per la programmazione : Marc-Olivier Méhu
Supporto tecnico e logistico : Manuel Goepfert
Aiuto per la traduzione : Arnaldo La Scala

Contatto : metmap@orbifly.com




FONTI E CREDITI :

   NOAA